Tintern, United Kingdom
Current Conditions -  °F | °C
As of 12:20 AM on Thursday 29 Jan 2015 (Local Time) from EGGD Reporting Station
Scattered Clouds Scattered Clouds  
Wind Chill: 27°   Ceiling: Unl
Heat Index: 37°   Visibility: 6mi
Dew Point: 30°   Wind: 20mph
Humidity: 75%   Direction: 270°W
Pressure: 29.5"   Gusts: NA
Location:  51.7°N, 2.68°W
Report Text: EGGD 290020Z 27017KT 9999 FEW030 SCT040 03/M01 Q0999
Loading
Personal Weather Stations






























Interactive Weather Map New forecast layout! Learn more

10-Day Weather Forecast

Advertisements
Track Severe Weather on mobile